createdAt,value
2022-10-28T00:01:18.769Z,6.75
2022-10-28T00:03:51.276Z,6.80
2022-10-28T00:06:27.767Z,5.70
2022-10-28T00:09:01.737Z,5.55
2022-10-28T00:11:33.562Z,6.72
2022-10-28T00:14:12.754Z,5.50
2022-10-28T00:16:39.761Z,6.72
2022-10-28T00:19:08.275Z,6.20
2022-10-28T00:21:43.765Z,6.32
2022-10-28T00:24:19.868Z,6.13
2022-10-28T00:26:52.768Z,7.32
2022-10-28T00:29:20.583Z,5.57
2022-10-28T00:31:47.435Z,7.90
2022-10-28T00:34:27.779Z,7.55
2022-10-28T00:37:00.810Z,7.35
2022-10-28T00:39:34.824Z,6.22
2022-10-28T00:42:04.808Z,7.57
2022-10-28T00:45:06.831Z,6.78
2022-10-28T00:47:45.839Z,7.38
2022-10-28T00:50:50.881Z,7.38
2022-10-28T00:53:36.831Z,6.07
2022-10-28T00:56:04.613Z,7.20
2022-10-28T00:58:38.829Z,6.50
2022-10-28T01:01:05.567Z,6.93
2022-10-28T01:03:39.843Z,6.63
2022-10-28T01:06:08.098Z,8.70
2022-10-28T01:08:41.869Z,6.68
2022-10-28T01:11:26.575Z,7.28
2022-10-28T01:14:24.889Z,6.10
2022-10-28T01:17:00.860Z,9.20
2022-10-28T01:19:40.005Z,8.90
2022-10-28T01:22:33.869Z,6.78
2022-10-28T01:25:28.867Z,5.60
2022-10-28T01:28:19.594Z,6.88
2022-10-28T01:31:17.901Z,7.03
2022-10-28T01:34:08.857Z,7.05
2022-10-28T01:36:47.890Z,5.97
2022-10-28T01:39:40.880Z,6.03
2022-10-28T01:42:24.938Z,5.78
2022-10-28T01:45:00.908Z,7.35
2022-10-28T01:47:41.914Z,6.93
2022-10-28T01:50:17.685Z,5.93
2022-10-28T01:52:55.222Z,6.00
2022-10-28T01:55:27.393Z,6.15
2022-10-28T01:58:03.910Z,6.32
2022-10-28T02:00:39.975Z,7.07
2022-10-28T02:03:08.818Z,7.25
2022-10-28T02:05:50.897Z,6.57
2022-10-28T02:09:17.941Z,6.75
2022-10-28T02:12:24.969Z,6.88
2022-10-28T02:15:19.852Z,7.13
2022-10-28T02:18:32.930Z,6.78
2022-10-28T02:21:09.683Z,6.32
2022-10-28T02:24:09.969Z,5.65
2022-10-28T02:26:46.985Z,7.03
2022-10-28T02:29:46.011Z,8.07
2022-10-28T02:32:18.739Z,5.65
2022-10-28T02:34:55.010Z,6.72
2022-10-28T02:37:37.997Z,6.82
2022-10-28T02:40:11.786Z,6.30
2022-10-28T02:42:51.149Z,6.78
2022-10-28T02:45:27.974Z,6.60
2022-10-28T02:48:04.036Z,5.85
2022-10-28T02:50:45.043Z,5.47
2022-10-28T02:53:21.656Z,6.20
2022-10-28T02:56:00.004Z,6.80
2022-10-28T02:58:40.201Z,6.55
2022-10-28T03:01:14.136Z,6.35
2022-10-28T03:03:47.309Z,5.72
2022-10-28T03:08:52.893Z,5.30
2022-10-28T03:11:20.152Z,7.03
2022-10-28T03:13:53.048Z,4.90
2022-10-28T03:16:19.811Z,5.93
2022-10-28T03:18:53.068Z,5.60
2022-10-28T03:21:20.225Z,5.85
2022-10-28T03:23:54.038Z,6.70
2022-10-28T03:26:20.808Z,6.43
2022-10-28T03:28:47.602Z,6.80
2022-10-28T03:31:22.075Z,6.25
2022-10-28T03:33:59.067Z,6.68
2022-10-28T03:36:26.022Z,8.85
2022-10-28T03:38:59.072Z,5.32
2022-10-28T03:41:25.840Z,6.72
2022-10-28T03:43:52.619Z,6.70
2022-10-28T03:46:26.074Z,5.85
2022-10-28T03:49:00.089Z,5.95
2022-10-28T03:51:33.107Z,5.57
2022-10-28T03:54:06.155Z,5.55
2022-10-28T03:56:39.091Z,5.38
2022-10-28T03:59:08.528Z,6.18
2022-10-28T04:01:42.257Z,8.85
2022-10-28T04:04:09.073Z,6.75
2022-10-28T04:06:36.895Z,6.80
2022-10-28T04:09:10.120Z,5.97
2022-10-28T04:11:43.176Z,5.97
2022-10-28T04:14:23.207Z,6.05
2022-10-28T04:16:50.169Z,6.10
2022-10-28T04:19:23.151Z,7.80
2022-10-28T04:21:49.937Z,6.03
2022-10-28T04:24:23.132Z,9.60
2022-10-28T04:26:50.108Z,6.25
2022-10-28T04:29:16.929Z,6.75
2022-10-28T04:31:52.208Z,6.43
2022-10-28T04:34:19.403Z,6.43
2022-10-28T04:36:46.163Z,5.55
2022-10-28T04:39:20.180Z,5.25
2022-10-28T04:41:47.021Z,6.20
2022-10-28T04:44:20.187Z,6.63
2022-10-28T04:46:46.935Z,6.03
2022-10-28T04:49:20.214Z,9.63
2022-10-28T04:51:53.291Z,4.80
2022-10-28T04:54:20.228Z,5.38
2022-10-28T04:56:53.230Z,4.88
2022-10-28T04:59:20.037Z,7.20
2022-10-28T05:01:53.260Z,5.95
2022-10-28T05:04:20.564Z,5.97
2022-10-28T05:06:49.338Z,6.10
2022-10-28T05:09:22.266Z,5.35
2022-10-28T05:11:55.187Z,6.40
2022-10-28T05:14:31.184Z,6.65
2022-10-28T05:17:00.848Z,8.15
2022-10-28T05:19:27.655Z,10.05
2022-10-28T05:22:01.233Z,9.20
2022-10-28T05:24:28.011Z,6.60
2022-10-28T05:27:01.226Z,6.22
2022-10-28T05:29:34.246Z,6.63
2022-10-28T05:32:01.149Z,7.00
2022-10-28T05:34:41.257Z,8.57
2022-10-28T05:37:14.251Z,6.68
2022-10-28T05:39:41.208Z,7.30
2022-10-28T05:42:15.276Z,6.32
2022-10-28T05:44:50.276Z,7.00
2022-10-28T05:47:25.294Z,7.55
2022-10-28T05:49:58.256Z,6.28
2022-10-28T05:52:26.012Z,7.35
2022-10-28T05:54:59.292Z,5.88
2022-10-28T05:57:26.079Z,5.95
2022-10-28T05:59:59.236Z,7.20
2022-10-28T06:02:25.950Z,11.68
2022-10-28T06:04:52.675Z,5.70
2022-10-28T06:07:35.270Z,9.45
2022-10-28T06:10:09.319Z,6.82
2022-10-28T06:12:37.328Z,6.75
2022-10-28T06:15:04.740Z,7.88
2022-10-28T06:17:40.818Z,10.10
2022-10-28T06:20:08.159Z,6.78
2022-10-28T06:22:57.773Z,5.80
2022-10-28T06:25:25.951Z,5.43
2022-10-28T06:28:10.318Z,8.77
2022-10-28T06:30:43.858Z,7.03
2022-10-28T06:33:13.658Z,7.80
2022-10-28T06:35:46.903Z,6.32
2022-10-28T06:38:13.784Z,7.30
2022-10-28T06:40:40.743Z,6.10
2022-10-28T06:43:18.854Z,4.80
2022-10-28T06:45:46.956Z,5.18
2022-10-28T06:48:22.373Z,8.13
2022-10-28T06:50:56.376Z,9.52
2022-10-28T06:53:23.387Z,5.57
2022-10-28T06:56:02.480Z,7.57
2022-10-28T06:58:29.319Z,7.80
2022-10-28T07:00:56.194Z,6.32
2022-10-28T07:03:45.381Z,6.80
2022-10-28T07:06:19.410Z,7.88
2022-10-28T07:08:46.166Z,8.43
2022-10-28T07:11:12.977Z,8.55
2022-10-28T07:13:52.425Z,5.53
2022-10-28T07:16:19.200Z,8.18
2022-10-28T07:18:52.398Z,5.78
2022-10-28T07:21:28.503Z,5.60
2022-10-28T07:23:56.426Z,6.50
2022-10-28T07:26:30.495Z,4.78
2022-10-28T07:28:57.276Z,6.38
2022-10-28T07:31:30.453Z,6.32
2022-10-28T07:33:57.334Z,9.68
2022-10-28T07:36:34.461Z,7.38
2022-10-28T07:39:07.498Z,7.78
2022-10-28T07:41:40.511Z,7.15
2022-10-28T07:44:07.879Z,8.77
2022-10-28T07:46:41.505Z,9.40
2022-10-28T07:49:08.507Z,7.75
2022-10-28T07:51:42.478Z,5.72
2022-10-28T07:54:09.411Z,6.30
2022-10-28T07:56:42.458Z,6.85
2022-10-28T07:59:15.509Z,6.32
2022-10-28T08:01:42.392Z,7.78
2022-10-28T08:04:15.505Z,9.43
2022-10-28T08:06:42.747Z,6.05
2022-10-28T08:09:16.480Z,7.68
2022-10-28T08:11:49.530Z,6.07
2022-10-28T08:14:22.524Z,10.30
2022-10-28T08:16:55.477Z,7.45
2022-10-28T08:19:22.298Z,7.65
2022-10-28T08:21:49.076Z,8.13
2022-10-28T08:24:22.475Z,9.30
2022-10-28T08:27:02.477Z,8.15
2022-10-28T08:29:35.522Z,7.53
2022-10-28T08:32:02.965Z,8.90
2022-10-28T08:34:40.753Z,6.75
2022-10-28T08:37:10.409Z,7.50
2022-10-28T08:39:43.531Z,7.55
2022-10-28T08:42:16.077Z,5.95
2022-10-28T08:45:02.633Z,5.72
2022-10-28T08:47:50.621Z,7.85
2022-10-28T08:50:21.941Z,7.70
2022-10-28T08:53:05.540Z,6.03
2022-10-28T08:55:50.542Z,7.43
2022-10-28T08:58:28.708Z,7.65
2022-10-28T09:01:06.602Z,5.78
2022-10-28T09:03:45.573Z,9.13
2022-10-28T09:06:18.576Z,12.70
2022-10-28T09:08:50.513Z,6.40
2022-10-28T09:12:06.771Z,7.25
2022-10-28T09:14:42.823Z,6.95
2022-10-28T09:17:27.590Z,7.03
2022-10-28T09:20:08.579Z,5.75
2022-10-28T09:22:59.847Z,6.05
2022-10-28T09:25:45.577Z,7.90
2022-10-28T09:28:33.601Z,6.38
2022-10-28T09:31:13.241Z,6.97
2022-10-28T09:33:58.592Z,5.82
2022-10-28T09:36:37.787Z,4.88
2022-10-28T09:39:26.928Z,5.88
2022-10-28T09:42:03.623Z,7.90
2022-10-28T09:44:57.907Z,6.22
2022-10-28T09:47:43.622Z,5.18
2022-10-28T09:50:25.619Z,9.77
2022-10-28T09:53:19.734Z,7.50
2022-10-28T09:55:53.684Z,6.40
2022-10-28T09:58:20.510Z,7.25
2022-10-28T10:00:54.652Z,5.68
2022-10-28T10:03:21.475Z,7.18
2022-10-28T10:05:58.661Z,6.93
2022-10-28T10:08:37.656Z,8.73
2022-10-28T10:11:28.656Z,9.70
2022-10-28T10:14:05.642Z,9.80
2022-10-28T10:17:02.691Z,12.55
2022-10-28T10:20:01.261Z,7.93
2022-10-28T10:22:43.748Z,10.68
2022-10-28T10:25:19.665Z,8.68
2022-10-28T10:28:08.672Z,8.23
2022-10-28T10:30:39.749Z,8.60
2022-10-28T10:33:23.695Z,7.57
2022-10-28T10:36:06.705Z,13.95
2022-10-28T10:38:35.081Z,11.10
2022-10-28T10:41:08.690Z,11.18
2022-10-28T10:43:46.761Z,9.93
2022-10-28T10:46:22.698Z,11.80
2022-10-28T10:49:18.766Z,9.57
2022-10-28T10:51:52.973Z,12.13
2022-10-28T10:54:36.751Z,11.63
2022-10-28T10:57:16.035Z,15.02
2022-10-28T10:59:53.743Z,10.63
2022-10-28T11:02:26.174Z,8.32
2022-10-28T11:05:03.729Z,8.98
2022-10-28T11:07:32.759Z,7.70
2022-10-28T11:10:06.795Z,12.27
2022-10-28T11:12:42.775Z,7.63
2022-10-28T11:15:15.537Z,11.32
2022-10-28T11:18:01.793Z,9.40
2022-10-28T11:20:50.773Z,15.75
2022-10-28T11:23:36.453Z,11.15
2022-10-28T11:26:19.802Z,12.43
2022-10-28T11:28:55.682Z,9.18
2022-10-28T11:32:03.854Z,7.65
2022-10-28T11:35:01.792Z,10.85
2022-10-28T11:38:00.313Z,11.88
2022-10-28T11:41:08.804Z,9.52
2022-10-28T11:43:38.550Z,11.82
2022-10-28T11:46:14.887Z,13.40
2022-10-28T11:49:24.846Z,12.30
2022-10-28T11:52:19.820Z,12.65
2022-10-28T11:55:21.837Z,10.85
2022-10-28T11:58:21.163Z,16.90
2022-10-28T12:01:04.911Z,13.77
2022-10-28T12:03:44.380Z,11.52
2022-10-28T12:06:23.932Z,10.43
2022-10-28T12:09:12.882Z,11.52
2022-10-28T12:12:24.579Z,8.10
2022-10-28T12:15:17.159Z,11.98
2022-10-28T12:17:57.338Z,13.20
2022-10-28T12:20:39.910Z,14.20
2022-10-28T12:23:19.903Z,14.93
2022-10-28T12:25:50.149Z,12.30
2022-10-28T12:28:48.880Z,12.50
2022-10-28T12:31:45.878Z,13.43
2022-10-28T12:34:31.085Z,18.70
2022-10-28T12:37:13.907Z,14.82
2022-10-28T12:39:47.905Z,17.10
2022-10-28T12:42:38.941Z,21.17
2022-10-28T12:45:11.576Z,17.42
2022-10-28T12:47:51.891Z,11.50
2022-10-28T12:50:50.633Z,13.32
2022-10-28T12:53:32.941Z,17.15
2022-10-28T12:56:01.997Z,14.90
2022-10-28T12:58:34.924Z,13.52
2022-10-28T13:01:10.221Z,15.23
2022-10-28T13:03:43.953Z,16.73
2022-10-28T13:06:19.523Z,17.13
2022-10-28T13:09:06.034Z,16.58
2022-10-28T13:12:04.960Z,16.98
2022-10-28T13:14:57.004Z,19.48
2022-10-28T13:18:02.983Z,16.77
2022-10-28T13:21:12.565Z,19.60
2022-10-28T13:24:05.001Z,13.13
2022-10-28T13:26:43.996Z,12.68
2022-10-28T13:29:22.541Z,12.27
2022-10-28T13:31:56.990Z,21.33
2022-10-28T13:34:42.981Z,18.58
2022-10-28T13:37:26.991Z,14.73
2022-10-28T13:40:00.014Z,14.25
2022-10-28T13:42:45.913Z,14.30
2022-10-28T13:45:51.011Z,15.73
2022-10-28T13:48:32.642Z,16.08
2022-10-28T13:51:18.047Z,10.65
2022-10-28T13:53:48.007Z,18.67
2022-10-28T13:56:29.084Z,13.25
2022-10-28T13:59:21.029Z,12.98
2022-10-28T14:02:02.283Z,13.20
2022-10-28T14:04:42.688Z,12.93
2022-10-28T14:07:28.097Z,13.70
2022-10-28T14:10:06.035Z,14.23
2022-10-28T14:12:33.679Z,13.48
2022-10-28T14:15:24.066Z,13.07
2022-10-28T14:18:22.619Z,16.98
2022-10-28T14:20:57.053Z,8.35
2022-10-28T14:23:34.089Z,9.98
2022-10-28T14:26:11.037Z,13.13
2022-10-28T14:28:44.090Z,14.25
2022-10-28T14:31:11.529Z,15.25
2022-10-28T14:33:48.086Z,15.93
2022-10-28T14:36:17.958Z,13.65
2022-10-28T14:39:10.102Z,9.45
2022-10-28T14:42:02.295Z,14.68
2022-10-28T14:44:54.091Z,13.65
2022-10-28T14:48:04.339Z,13.48
2022-10-28T14:51:06.092Z,18.05
2022-10-28T14:53:42.128Z,8.73
2022-10-28T14:56:24.966Z,12.55
2022-10-28T14:59:00.133Z,14.27
2022-10-28T15:01:31.567Z,16.75
2022-10-28T15:04:08.099Z,8.45
2022-10-28T15:06:53.137Z,16.50
2022-10-28T15:09:29.284Z,14.02
2022-10-28T15:12:19.185Z,12.70
2022-10-28T15:14:52.108Z,13.70
2022-10-28T15:17:36.199Z,18.40
2022-10-28T15:20:38.133Z,19.52
2022-10-28T15:23:20.424Z,19.20
2022-10-28T15:28:38.186Z,12.25
2022-10-28T15:31:11.150Z,14.18
2022-10-28T15:33:40.213Z,11.30
2022-10-28T15:36:27.262Z,9.23
2022-10-28T15:39:08.672Z,12.32
2022-10-28T15:41:53.542Z,14.70
2022-10-28T15:44:37.929Z,12.77
2022-10-28T15:47:34.357Z,10.05
2022-10-28T15:50:25.715Z,13.90
2022-10-28T15:53:16.210Z,7.97
2022-10-28T15:56:07.102Z,10.05
2022-10-28T15:58:46.375Z,9.60
2022-10-28T16:01:30.831Z,9.15
2022-10-28T16:04:04.310Z,12.95
2022-10-28T16:06:43.203Z,12.63
2022-10-28T16:09:09.941Z,9.75
2022-10-28T16:11:41.930Z,10.40
2022-10-28T16:14:44.239Z,14.15
2022-10-28T16:17:20.219Z,20.17
2022-10-28T16:19:58.266Z,13.57
2022-10-28T16:22:36.230Z,13.10
2022-10-28T16:25:12.825Z,9.38
2022-10-28T16:27:46.230Z,12.95
2022-10-28T16:30:20.267Z,9.70
2022-10-28T16:32:49.641Z,10.90
2022-10-28T16:35:28.250Z,9.30
2022-10-28T16:37:55.904Z,14.23
2022-10-28T16:40:52.357Z,14.15
2022-10-28T16:43:24.610Z,10.65
2022-10-28T16:46:00.383Z,12.40
2022-10-28T16:48:29.756Z,12.38
2022-10-28T16:51:09.264Z,15.35
2022-10-28T16:53:43.282Z,15.43
2022-10-28T16:56:16.434Z,20.35
2022-10-28T16:58:43.965Z,18.23
2022-10-28T17:01:27.372Z,16.88
2022-10-28T17:03:54.381Z,14.15
2022-10-28T17:06:28.314Z,11.20
2022-10-28T17:09:03.381Z,15.88
2022-10-28T17:14:04.345Z,13.45
2022-10-28T17:16:31.068Z,15.90
2022-10-28T17:18:57.848Z,10.93
2022-10-28T17:21:31.386Z,9.18
2022-10-28T17:23:58.160Z,9.00
2022-10-28T17:26:31.351Z,12.30
2022-10-28T17:29:04.507Z,15.43
2022-10-28T17:31:31.288Z,18.02
2022-10-28T17:33:58.342Z,13.20
2022-10-28T17:36:31.403Z,10.23
2022-10-28T17:38:58.212Z,11.82
2022-10-28T17:41:31.545Z,12.18
2022-10-28T17:43:58.522Z,15.40
2022-10-28T17:46:25.833Z,19.23
2022-10-28T17:48:59.478Z,14.35
2022-10-28T17:51:26.552Z,11.65
2022-10-28T17:53:54.866Z,13.93
2022-10-28T17:56:28.428Z,10.70
2022-10-28T17:59:01.532Z,8.38
2022-10-28T18:01:32.557Z,13.32
2022-10-28T18:03:59.459Z,10.18
2022-10-28T18:06:33.415Z,11.35
2022-10-28T18:09:06.415Z,11.32
2022-10-28T18:11:39.973Z,12.63
2022-10-28T18:14:13.453Z,11.43
2022-10-28T18:16:40.502Z,9.50
2022-10-28T18:19:14.463Z,8.80
2022-10-28T18:21:41.468Z,10.82
2022-10-28T18:24:09.238Z,11.32
2022-10-28T18:26:44.433Z,11.48
2022-10-28T18:29:13.193Z,9.43
2022-10-28T18:31:48.496Z,7.18
2022-10-28T18:34:15.419Z,8.27
2022-10-28T18:36:42.615Z,6.93
2022-10-28T18:39:16.560Z,6.50
2022-10-28T18:41:43.896Z,6.35
2022-10-28T18:44:19.673Z,6.25
2022-10-28T18:46:46.738Z,6.60
2022-10-28T18:49:16.079Z,5.82
2022-10-28T18:51:49.697Z,5.20
2022-10-28T18:54:16.544Z,5.90
2022-10-28T18:56:47.677Z,12.57
2022-10-28T18:59:22.507Z,11.15
2022-10-28T19:01:49.634Z,11.95
2022-10-28T19:04:26.625Z,10.48
2022-10-28T19:06:54.300Z,11.93
2022-10-28T19:09:27.662Z,8.50
2022-10-28T19:11:54.786Z,10.65
2022-10-28T19:14:28.518Z,13.38
2022-10-28T19:16:57.766Z,10.20
2022-10-28T19:19:34.245Z,10.85
2022-10-28T19:22:03.724Z,13.32
2022-10-28T19:24:37.604Z,11.23
2022-10-28T19:27:04.789Z,8.32
2022-10-28T19:29:31.840Z,11.10
2022-10-28T19:32:05.619Z,11.35
2022-10-28T19:34:32.738Z,11.32
2022-10-28T19:37:06.758Z,12.60
2022-10-28T19:39:33.587Z,12.10
2022-10-28T19:42:07.590Z,10.45
2022-10-28T19:44:40.597Z,12.27
2022-10-28T19:47:14.553Z,10.85
2022-10-28T19:49:47.830Z,12.68
2022-10-28T19:52:14.715Z,15.52
2022-10-28T19:54:48.713Z,15.60
2022-10-28T19:57:15.569Z,14.13
2022-10-28T19:59:42.592Z,12.90
2022-10-28T20:02:17.923Z,15.32
2022-10-28T20:04:45.054Z,12.75
2022-10-28T20:07:18.639Z,10.82
2022-10-28T20:09:45.497Z,10.40
2022-10-28T20:12:18.624Z,8.57
2022-10-28T20:14:45.432Z,10.70
2022-10-28T20:17:20.627Z,10.38
2022-10-28T20:19:53.839Z,12.27
2022-10-28T20:22:25.561Z,7.30
2022-10-28T20:25:05.609Z,11.43
2022-10-28T20:27:34.851Z,7.65
2022-10-28T20:30:08.617Z,10.52
2022-10-28T20:32:36.486Z,8.63
2022-10-28T20:35:09.610Z,9.48
2022-10-28T20:37:36.540Z,10.27
2022-10-28T20:40:09.609Z,9.27
2022-10-28T20:42:36.608Z,10.43
2022-10-28T20:45:13.967Z,9.00
2022-10-28T20:47:42.508Z,10.00
2022-10-28T20:50:15.646Z,8.57
2022-10-28T20:52:42.401Z,10.20
2022-10-28T20:55:15.674Z,12.98
2022-10-28T20:57:42.526Z,9.68
2022-10-28T21:00:10.172Z,8.02
2022-10-28T21:02:46.831Z,7.78
2022-10-28T21:05:13.822Z,9.38
2022-10-28T21:07:46.792Z,13.32
2022-10-28T21:10:13.713Z,10.13
2022-10-28T21:12:42.453Z,11.35
2022-10-28T21:15:16.807Z,11.15
2022-10-28T21:17:43.617Z,10.90
2022-10-28T21:20:10.838Z,9.30
2022-10-28T21:22:44.706Z,8.30
2022-10-28T21:25:11.525Z,7.55
2022-10-28T21:27:52.837Z,8.50
2022-10-28T21:30:19.842Z,7.50
2022-10-28T21:32:46.897Z,8.20
2022-10-28T21:35:20.710Z,10.25
2022-10-28T21:37:54.101Z,10.48
2022-10-28T21:40:48.734Z,8.98
2022-10-28T21:43:22.720Z,8.15
2022-10-28T21:45:51.685Z,7.95
2022-10-28T21:48:19.693Z,9.43
2022-10-28T21:51:01.745Z,9.18
2022-10-28T21:53:38.748Z,8.00
2022-10-28T21:56:13.777Z,7.47
2022-10-28T21:58:49.913Z,6.95
2022-10-28T22:01:22.761Z,7.70
2022-10-28T22:03:59.813Z,10.77
2022-10-28T22:06:33.825Z,8.98
2022-10-28T22:09:00.686Z,11.52
2022-10-28T22:11:27.488Z,9.10
2022-10-28T22:14:06.801Z,11.52
2022-10-28T22:16:35.241Z,8.23
2022-10-28T22:19:05.060Z,20.75
2022-10-28T22:21:41.799Z,23.27
2022-10-28T22:24:09.230Z,16.80
2022-10-28T22:26:36.208Z,16.88
2022-10-28T22:29:09.780Z,16.27
2022-10-28T22:31:36.571Z,11.35
2022-10-28T22:34:11.816Z,10.73
2022-10-28T22:36:40.360Z,10.18
2022-10-28T22:39:13.809Z,9.00
2022-10-28T22:41:49.801Z,8.45
2022-10-28T22:44:16.569Z,8.55
2022-10-28T22:46:50.933Z,8.07
2022-10-28T22:49:17.762Z,7.90
2022-10-28T22:51:50.875Z,8.45
2022-10-28T22:54:17.667Z,5.97
2022-10-28T22:56:53.827Z,6.38
2022-10-28T22:59:20.585Z,9.95
2022-10-28T23:01:56.093Z,5.70
2022-10-28T23:04:22.888Z,6.47
2022-10-28T23:06:49.691Z,7.05
2022-10-28T23:09:28.837Z,9.25
2022-10-28T23:12:01.753Z,6.93
2022-10-28T23:14:28.467Z,6.18
2022-10-28T23:17:05.864Z,7.35
2022-10-28T23:19:32.656Z,7.85
2022-10-28T23:22:01.886Z,5.88
2022-10-28T23:24:34.890Z,6.70
2022-10-28T23:27:07.884Z,8.07
2022-10-28T23:29:38.517Z,6.13
2022-10-28T23:32:11.901Z,9.07
2022-10-28T23:34:45.733Z,7.97
2022-10-28T23:37:24.891Z,7.68
2022-10-28T23:39:51.667Z,7.03
2022-10-28T23:42:25.970Z,6.25
2022-10-28T23:44:52.744Z,6.50
2022-10-28T23:47:24.317Z,6.70
2022-10-28T23:49:58.934Z,6.60
2022-10-28T23:52:31.940Z,6.68
2022-10-28T23:55:04.870Z,6.25
2022-10-28T23:57:38.924Z,6.40
